Time;durP1;ratioP1;P1;durP2;ratioP2;P2;SDS_P1;SDS_P2;PMS_P1;PMS_P2;Temp;Humidity;BMP_temperature;BMP_pressure;BME280_temperature;BME280_humidity;BME280_pressure;Samples;Min_cycle;Max_cycle;Signal;HPM_P1;HPM_P2
2021/05/25 00:00:01;;;;;;;0.45;0.10;;;11.70;65.30;;;;;;4972057;28;20046;-85
2021/05/25 00:02:27;;;;;;;0.22;0.10;;;11.70;65.40;;;;;;4984431;28;20065;-87
2021/05/25 00:04:53;;;;;;;1.65;0.20;;;11.70;65.40;;;;;;4978618;28;20026;-86
2021/05/25 00:07:19;;;;;;;0.05;0.05;;;11.70;65.40;;;;;;4974434;28;20043;-85
2021/05/25 00:09:45;;;;;;;1.55;0.30;;;11.70;65.50;;;;;;5010304;28;20027;-87
2021/05/25 00:12:12;;;;;;;0.28;0.00;;;11.60;65.50;;;;;;4978774;28;20479;-85
2021/05/25 00:14:38;;;;;;;0.25;0.00;;;11.60;65.50;;;;;;4961086;28;20038;-86
2021/05/25 00:17:04;;;;;;;0.20;0.10;;;11.60;65.60;;;;;;4972540;28;20027;-87
2021/05/25 00:19:30;;;;;;;0.45;0.35;;;11.60;65.60;;;;;;4973007;28;20511;-87
2021/05/25 00:21:56;;;;;;;3.10;0.05;;;11.60;65.60;;;;;;4974272;28;20027;-85
2021/05/25 00:24:22;;;;;;;8.15;0.47;;;11.50;65.60;;;;;;4954266;28;20048;-86
2021/05/25 00:26:48;;;;;;;0.10;0.00;;;11.50;65.70;;;;;;4969106;28;20428;-86
2021/05/25 00:29:14;;;;;;;0.22;0.05;;;11.50;65.70;;;;;;4988405;28;20035;-87
2021/05/25 00:31:41;;;;;;;0.20;0.00;;;11.50;65.80;;;;;;4981055;28;20492;-86
2021/05/25 00:34:07;;;;;;;0.88;0.40;;;11.50;65.80;;;;;;4958636;28;20043;-86
2021/05/25 00:36:36;;;;;;;0.00;0.00;;;11.50;65.90;;;;;;5010200;28;20057;-86
2021/05/25 00:39:04;;;;;;;0.88;0.55;;;11.50;65.90;;;;;;5008744;28;20026;-86
2021/05/25 00:41:30;;;;;;;1.70;0.15;;;11.50;65.90;;;;;;4977980;28;20030;-87
2021/05/25 00:43:57;;;;;;;3.55;0.70;;;11.40;65.90;;;;;;4977509;28;20030;-86
2021/05/25 00:46:23;;;;;;;0.30;0.10;;;11.40;65.90;;;;;;4973150;28;20046;-87
2021/05/25 00:48:49;;;;;;;0.10;0.00;;;11.40;66.00;;;;;;4973053;28;20091;-86
2021/05/25 00:51:15;;;;;;;0.65;0.28;;;11.40;66.00;;;;;;4973551;28;20034;-88
2021/05/25 00:53:41;;;;;;;0.00;0.00;;;11.40;66.10;;;;;;4972391;28;20034;-86
2021/05/25 00:56:07;;;;;;;0.43;0.10;;;11.30;66.10;;;;;;4972426;28;20026;-86
2021/05/25 00:58:34;;;;;;;0.40;0.10;;;11.30;66.20;;;;;;4956086;28;20043;-86
2021/05/25 01:01:01;;;;;;;2.10;0.30;;;11.30;66.20;;;;;;4978452;28;20037;-86
2021/05/25 01:03:27;;;;;;;0.22;0.03;;;11.30;66.20;;;;;;4973826;28;20039;-86
2021/05/25 01:05:53;;;;;;;0.32;0.15;;;11.30;66.20;;;;;;4989602;28;20038;-86
2021/05/25 01:08:20;;;;;;;6.40;0.17;;;11.30;66.30;;;;;;5008861;28;20038;-87
2021/05/25 01:10:52;;;;;;;0.80;0.13;;;11.30;66.40;;;;;;4991644;28;20483;-86
2021/05/25 01:13:22;;;;;;;0.28;0.00;;;11.30;66.30;;;;;;4972096;28;20458;-86
2021/05/25 01:15:49;;;;;;;1.80;0.30;;;11.30;66.40;;;;;;5015095;28;20066;-85
2021/05/25 01:18:15;;;;;;;0.00;0.00;;;11.30;66.40;;;;;;4977597;28;20400;-87
2021/05/25 01:20:42;;;;;;;0.00;0.00;;;11.30;66.40;;;;;;4976295;28;20089;-86
2021/05/25 01:23:09;;;;;;;0.73;0.10;;;11.20;66.40;;;;;;4976214;28;20046;-86
2021/05/25 01:25:38;;;;;;;2.47;0.17;;;11.20;66.50;;;;;;4973699;28;20034;-87
2021/05/25 01:28:05;;;;;;;6.15;0.32;;;11.20;66.60;;;;;;4973584;28;20046;-86
2021/05/25 01:30:36;;;;;;;10.68;0.10;;;11.20;66.60;;;;;;4975603;28;20034;-88
2021/05/25 01:33:02;;;;;;;0.10;0.00;;;11.20;66.70;;;;;;4971874;28;20034;-87
2021/05/25 01:35:29;;;;;;;1.52;0.10;;;11.20;66.70;;;;;;4971745;28;20031;-87
2021/05/25 01:37:56;;;;;;;0.43;0.20;;;11.20;66.70;;;;;;4971889;28;20035;-86
2021/05/25 01:40:22;;;;;;;1.05;0.75;;;11.20;66.80;;;;;;4971979;28;20027;-85
2021/05/25 01:42:48;;;;;;;0.20;0.00;;;11.20;66.80;;;;;;4972098;28;20058;-85
2021/05/25 01:45:19;;;;;;;0.20;0.10;;;11.20;66.80;;;;;;4959878;28;20042;-87
2021/05/25 01:47:45;;;;;;;0.20;0.00;;;11.10;66.80;;;;;;4984085;28;20045;-86
2021/05/25 01:50:13;;;;;;;0.43;0.10;;;11.20;66.90;;;;;;4962920;28;20038;-86
2021/05/25 01:52:50;;;;;;;0.00;0.00;;;11.10;66.90;;;;;;4977990;28;20038;-86
2021/05/25 01:55:29;;;;;;;0.10;0.00;;;11.10;66.90;;;;;;4975768;28;20357;-86
2021/05/25 01:58:16;;;;;;;0.45;0.10;;;11.10;67.10;;;;;;5020823;28;20038;-87
2021/05/25 02:00:47;;;;;;;0.10;0.00;;;11.10;67.00;;;;;;4990531;28;20023;-87
2021/05/25 02:03:13;;;;;;;0.00;0.00;;;11.10;67.00;;;;;;4970958;28;20035;-85
2021/05/25 02:05:39;;;;;;;0.00;0.00;;;11.10;67.10;;;;;;4981860;28;20050;-86
2021/05/25 02:08:06;;;;;;;5.07;0.32;;;11.10;67.10;;;;;;4971317;28;20050;-86
2021/05/25 02:10:39;;;;;;;2.05;0.28;;;11.10;67.20;;;;;;5002802;28;20027;-87
2021/05/25 02:13:11;;;;;;;0.00;0.00;;;11.00;67.20;;;;;;4989147;28;20038;-86
2021/05/25 02:15:38;;;;;;;0.13;0.00;;;11.10;67.30;;;;;;5004570;28;20046;-84
2021/05/25 02:18:09;;;;;;;0.65;0.10;;;11.00;67.30;;;;;;4971467;28;20039;-86
2021/05/25 02:20:35;;;;;;;0.47;0.17;;;11.00;67.30;;;;;;4986276;28;20026;-86
2021/05/25 02:23:02;;;;;;;3.83;0.17;;;11.00;67.30;;;;;;4986283;28;20038;-86
2021/05/25 02:25:28;;;;;;;0.30;0.20;;;11.00;67.40;;;;;;4970015;28;20054;-87
2021/05/25 02:27:54;;;;;;;0.00;0.00;;;11.00;67.40;;;;;;4973063;28;20047;-85
2021/05/25 02:30:21;;;;;;;7.32;0.20;;;11.00;67.50;;;;;;4971763;28;20465;-85
2021/05/25 02:32:47;;;;;;;0.00;0.00;;;11.00;67.60;;;;;;4986384;28;20465;-86
2021/05/25 02:35:13;;;;;;;1.65;0.13;;;11.00;67.60;;;;;;4971229;28;20037;-85
2021/05/25 02:37:39;;;;;;;0.40;0.20;;;10.90;67.60;;;;;;4990316;28;20038;-85
2021/05/25 02:40:06;;;;;;;0.10;0.00;;;10.90;67.60;;;;;;4975777;28;20030;-86
2021/05/25 02:42:33;;;;;;;0.00;0.00;;;10.90;67.70;;;;;;4989580;28;20046;-86
2021/05/25 02:44:59;;;;;;;0.57;0.17;;;11.00;67.70;;;;;;4974332;28;20047;-86
2021/05/25 02:47:25;;;;;;;1.90;0.03;;;10.90;67.70;;;;;;4975167;28;20107;-87
2021/05/25 02:49:51;;;;;;;0.00;0.00;;;10.90;67.70;;;;;;4974794;28;20115;-87
2021/05/25 02:52:17;;;;;;;0.05;0.00;;;10.90;67.80;;;;;;4975877;28;20039;-88
2021/05/25 02:54:43;;;;;;;3.50;0.00;;;10.90;67.90;;;;;;4955487;28;20495;-87
2021/05/25 02:57:09;;;;;;;2.45;0.10;;;10.90;67.80;;;;;;4973716;28;20049;-87
2021/05/25 02:59:36;;;;;;;0.00;0.00;;;10.90;67.90;;;;;;4990615;28;20387;-87
2021/05/25 03:02:02;;;;;;;0.00;0.00;;;10.90;67.90;;;;;;4974012;28;20043;-86
2021/05/25 03:04:28;;;;;;;1.77;0.10;;;10.90;68.10;;;;;;4957696;28;20058;-86
2021/05/25 03:06:54;;;;;;;4.75;0.10;;;10.90;68.10;;;;;;4958541;28;20516;-85
2021/05/25 03:09:21;;;;;;;0.45;0.17;;;10.80;68.00;;;;;;4990406;28;20031;-86
2021/05/25 03:11:47;;;;;;;0.00;0.00;;;10.80;68.10;;;;;;4990360;28;20487;-86
2021/05/25 03:14:13;;;;;;;0.00;0.00;;;10.80;68.10;;;;;;4975376;28;20035;-87
2021/05/25 03:16:39;;;;;;;0.13;0.10;;;10.80;68.20;;;;;;4983830;28;20042;-86
2021/05/25 03:19:05;;;;;;;0.00;0.00;;;10.80;68.20;;;;;;4976016;28;20038;-86
2021/05/25 03:21:31;;;;;;;0.52;0.25;;;10.80;68.20;;;;;;5011191;28;20038;-87
2021/05/25 03:23:57;;;;;;;0.00;0.00;;;10.80;68.20;;;;;;4979144;28;20436;-87
2021/05/25 03:26:23;;;;;;;0.00;0.00;;;10.80;68.30;;;;;;4962347;28;20035;-87
2021/05/25 03:28:50;;;;;;;0.10;0.00;;;10.70;68.30;;;;;;4977618;28;20069;-84
2021/05/25 03:31:16;;;;;;;0.22;0.15;;;10.70;68.30;;;;;;4975117;28;20058;-86
2021/05/25 03:33:42;;;;;;;0.00;0.00;;;10.70;68.40;;;;;;4974141;28;20035;-86
2021/05/25 03:36:09;;;;;;;0.70;0.38;;;10.70;68.50;;;;;;4973933;28;20125;-87
2021/05/25 03:38:35;;;;;;;0.13;0.10;;;10.70;68.50;;;;;;4989490;28;20030;-87
2021/05/25 03:41:01;;;;;;;0.00;0.00;;;10.70;68.60;;;;;;4973796;28;20035;-87
2021/05/25 03:43:27;;;;;;;0.00;0.00;;;10.70;68.60;;;;;;4957556;28;20039;-87
2021/05/25 03:45:53;;;;;;;0.20;0.10;;;10.70;68.60;;;;;;4979968;28;20054;-86
2021/05/25 03:48:19;;;;;;;0.00;0.00;;;10.70;68.60;;;;;;4994071;28;20066;-86
2021/05/25 03:50:45;;;;;;;0.00;0.00;;;10.70;68.60;;;;;;5010268;28;20046;-86
2021/05/25 03:53:11;;;;;;;0.10;0.05;;;10.70;68.70;;;;;;5009807;28;20035;-87
2021/05/25 04:01:00;;;;;;;0.15;0.00;;;10.70;68.80;;;;;;5004734;28;20031;-86
2021/05/25 04:03:26;;;;;;;0.00;0.00;;;10.60;68.80;;;;;;4973839;28;20042;-86
2021/05/25 04:05:52;;;;;;;0.43;0.00;;;10.60;68.80;;;;;;4988892;28;20022;-88
2021/05/25 04:08:19;;;;;;;0.25;0.13;;;10.60;68.80;;;;;;4973795;28;20411;-85
2021/05/25 04:10:45;;;;;;;0.05;0.00;;;10.60;68.90;;;;;;4973171;28;20022;-86
2021/05/25 04:13:12;;;;;;;2.72;0.10;;;10.60;68.90;;;;;;4957285;28;20408;-86
2021/05/25 04:15:47;;;;;;;0.05;0.00;;;10.60;69.00;;;;;;4989267;28;20492;-87
2021/05/25 04:18:13;;;;;;;0.32;0.20;;;10.60;69.00;;;;;;4973048;28;20039;-86
2021/05/25 04:20:39;;;;;;;0.00;0.00;;;10.60;69.80;;;;;;4953420;28;20039;-86
2021/05/25 04:23:05;;;;;;;0.25;0.13;;;10.60;69.10;;;;;;4963457;28;20046;-87
2021/05/25 04:25:32;;;;;;;0.00;0.00;;;10.60;69.10;;;;;;4974141;28;20027;-87
2021/05/25 04:27:58;;;;;;;0.20;0.17;;;10.60;69.10;;;;;;4972727;28;20046;-86
2021/05/25 04:30:24;;;;;;;0.25;0.00;;;10.60;69.10;;;;;;4972844;28;20041;-87
2021/05/25 04:32:51;;;;;;;0.47;0.10;;;10.60;69.10;;;;;;4972812;28;20041;-86
2021/05/25 04:35:17;;;;;;;0.00;0.00;;;10.60;69.10;;;;;;4972326;28;20037;-86
2021/05/25 04:37:43;;;;;;;1.48;0.28;;;10.60;69.10;;;;;;4972820;28;20027;-86
2021/05/25 04:40:10;;;;;;;0.00;0.00;;;10.60;69.20;;;;;;4972765;28;20047;-86
2021/05/25 04:42:36;;;;;;;0.55;0.15;;;10.70;69.20;;;;;;4972891;28;20039;-87
2021/05/25 04:45:03;;;;;;;1.20;0.10;;;10.70;69.20;;;;;;4973182;28;20046;-85
2021/05/25 04:47:29;;;;;;;0.15;0.05;;;10.70;69.30;;;;;;4984116;28;20035;-87
2021/05/25 04:49:55;;;;;;;0.00;0.00;;;10.70;69.20;;;;;;4976364;28;20035;-87
2021/05/25 04:52:21;;;;;;;1.98;0.25;;;10.70;69.20;;;;;;4972638;28;20042;-86
2021/05/25 04:54:47;;;;;;;0.20;0.10;;;10.80;69.30;;;;;;5016605;28;20034;-86
2021/05/25 04:57:14;;;;;;;0.40;0.08;;;10.70;69.20;;;;;;4976978;28;20480;-85
2021/05/25 04:59:40;;;;;;;1.27;0.30;;;10.80;69.30;;;;;;4976617;28;20038;-86
2021/05/25 05:02:06;;;;;;;0.00;0.00;;;10.80;69.30;;;;;;4951693;28;20039;-86
2021/05/25 05:04:32;;;;;;;0.15;0.00;;;10.80;69.30;;;;;;4953833;29;20038;-87
2021/05/25 05:06:58;;;;;;;0.00;0.00;;;10.90;69.30;;;;;;4953194;28;20047;-87
2021/05/25 05:09:24;;;;;;;0.43;0.10;;;10.90;69.20;;;;;;4969255;28;20055;-87
2021/05/25 05:11:50;;;;;;;0.00;0.00;;;11.10;69.20;;;;;;4985006;28;20027;-86
2021/05/25 05:14:16;;;;;;;0.10;0.10;;;11.30;69.00;;;;;;4985070;28;20388;-87
2021/05/25 05:16:42;;;;;;;0.00;0.00;;;11.60;68.80;;;;;;4965768;28;20042;-88
2021/05/25 05:19:08;;;;;;;1.10;0.08;;;11.80;68.40;;;;;;4955028;28;20443;-87
2021/05/25 05:21:35;;;;;;;4.70;0.22;;;12.10;68.20;;;;;;4972681;28;20039;-86
2021/05/25 05:24:01;;;;;;;7.13;0.43;;;12.40;67.90;;;;;;4987901;28;20466;-87
2021/05/25 05:26:27;;;;;;;0.00;0.00;;;12.60;67.60;;;;;;4973128;28;20034;-87
2021/05/25 05:28:53;;;;;;;0.65;0.10;;;12.80;67.40;;;;;;4971773;28;20054;-87
2021/05/25 05:31:19;;;;;;;2.78;0.32;;;13.00;67.20;;;;;;4978062;28;20043;-87
2021/05/25 05:33:45;;;;;;;0.05;0.00;;;13.20;67.00;;;;;;4977716;28;20034;-87
2021/05/25 05:36:15;;;;;;;0.30;0.17;;;13.40;66.80;;;;;;4976102;28;20049;-87
2021/05/25 05:38:43;;;;;;;0.20;0.00;;;13.50;66.70;;;;;;4976116;28;20042;-87
2021/05/25 05:41:09;;;;;;;0.00;0.00;;;13.70;66.60;;;;;;4976131;28;20041;-87
2021/05/25 05:43:35;;;;;;;5.10;0.20;;;13.90;66.40;;;;;;4973575;28;20030;-86
2021/05/25 05:46:01;;;;;;;0.20;0.10;;;14.00;66.20;;;;;;4973755;28;20050;-87
2021/05/25 05:48:27;;;;;;;10.40;0.28;;;14.10;66.00;;;;;;4987937;28;20043;-87
2021/05/25 05:50:54;;;;;;;0.13;0.10;;;14.30;66.20;;;;;;4987888;28;20357;-87
2021/05/25 05:53:20;;;;;;;0.30;0.10;;;14.40;65.90;;;;;;4987716;28;20030;-87
2021/05/25 05:55:46;;;;;;;0.35;0.30;;;14.50;65.80;;;;;;4971931;28;20469;-87
2021/05/25 05:58:13;;;;;;;0.20;0.00;;;14.60;65.60;;;;;;4955693;28;20108;-87
2021/05/25 06:00:41;;;;;;;3.42;0.38;;;14.70;65.60;;;;;;4971682;28;20035;-86
2021/05/25 06:03:10;;;;;;;4.03;0.40;;;14.80;65.60;;;;;;4971283;28;20043;-88
2021/05/25 06:05:37;;;;;;;0.00;0.00;;;14.80;65.50;;;;;;4971485;28;20058;-87
2021/05/25 06:08:04;;;;;;;3.03;0.55;;;14.90;65.50;;;;;;4987717;28;20107;-86
2021/05/25 06:10:31;;;;;;;0.20;0.05;;;15.00;65.50;;;;;;4971644;28;20050;-87
2021/05/25 06:12:57;;;;;;;0.00;0.00;;;15.10;65.50;;;;;;4972866;28;20031;-87
2021/05/25 06:15:24;;;;;;;3.22;0.22;;;15.10;65.30;;;;;;4971394;28;20034;-88
2021/05/25 06:17:51;;;;;;;0.00;0.00;;;15.20;65.30;;;;;;4972285;28;20035;-86
2021/05/25 06:20:17;;;;;;;0.00;0.00;;;15.20;65.30;;;;;;4971676;28;20027;-87
2021/05/25 06:22:43;;;;;;;0.32;0.10;;;15.30;65.30;;;;;;4955703;28;20046;-87
2021/05/25 06:25:11;;;;;;;0.00;0.00;;;15.40;65.10;;;;;;4971397;28;20039;-88
2021/05/25 06:27:37;;;;;;;1.08;0.17;;;15.50;65.00;;;;;;4952414;28;20055;-87
2021/05/25 06:30:04;;;;;;;0.03;0.00;;;15.60;64.80;;;;;;4970174;28;20042;-88
2021/05/25 06:32:30;;;;;;;0.82;0.00;;;15.60;64.80;;;;;;4975830;28;20030;-88
2021/05/25 06:34:57;;;;;;;0.00;0.00;;;15.60;64.90;;;;;;4975072;28;20484;-87
2021/05/25 06:37:23;;;;;;;0.68;0.10;;;15.70;64.90;;;;;;4975012;28;20023;-86
2021/05/25 06:39:49;;;;;;;0.00;0.00;;;15.80;64.80;;;;;;4975482;28;20039;-88
2021/05/25 06:42:15;;;;;;;0.00;0.00;;;15.80;64.60;;;;;;4974676;28;20027;-89
2021/05/25 06:44:41;;;;;;;0.00;0.00;;;15.80;64.70;;;;;;4975759;28;20039;-88
2021/05/25 06:47:07;;;;;;;4.75;0.22;;;15.90;64.80;;;;;;4984842;28;20387;-88
2021/05/25 06:49:33;;;;;;;0.05;0.00;;;16.00;64.70;;;;;;4976106;28;20038;-88
2021/05/25 06:51:59;;;;;;;0.38;0.22;;;16.10;65.30;;;;;;4977553;28;20043;-87
2021/05/25 06:54:26;;;;;;;1.00;0.00;;;16.30;64.20;;;;;;4995553;28;20030;-88
2021/05/25 06:56:52;;;;;;;0.00;0.00;;;16.40;63.90;;;;;;4979952;28;20031;-87
2021/05/25 06:59:18;;;;;;;0.00;0.00;;;16.50;63.70;;;;;;4978725;28;20018;-89
2021/05/25 07:01:44;;;;;;;0.10;0.08;;;16.70;63.50;;;;;;4973660;28;20035;-88
2021/05/25 07:04:10;;;;;;;0.22;0.20;;;16.60;63.40;;;;;;4957864;28;20038;-87
2021/05/25 07:06:36;;;;;;;2.28;0.20;;;16.70;63.60;;;;;;4974710;28;20039;-88
2021/05/25 07:09:03;;;;;;;1.50;0.15;;;16.70;63.50;;;;;;4975320;28;20053;-88
2021/05/25 07:11:30;;;;;;;8.93;0.20;;;16.70;63.50;;;;;;4974275;28;20031;-88
2021/05/25 07:13:57;;;;;;;1.20;0.15;;;16.80;63.50;;;;;;4975365;28;20035;-88
2021/05/25 07:16:24;;;;;;;0.10;0.00;;;16.80;63.30;;;;;;4980136;28;20042;-89
2021/05/25 07:18:50;;;;;;;0.17;0.00;;;17.00;63.20;;;;;;4978690;28;20034;-88
2021/05/25 07:21:16;;;;;;;1.17;0.17;;;17.10;62.90;;;;;;4978163;28;20054;-89
2021/05/25 07:23:42;;;;;;;0.50;0.25;;;17.10;62.80;;;;;;4978426;28;20058;-89
2021/05/25 07:26:08;;;;;;;0.20;0.10;;;17.10;62.70;;;;;;4978251;28;20031;-88
2021/05/25 07:28:34;;;;;;;0.13;0.00;;;17.00;62.80;;;;;;4975504;28;20492;-88
2021/05/25 07:31:01;;;;;;;0.38;0.00;;;17.00;62.80;;;;;;4977042;28;20064;-88
2021/05/25 07:33:27;;;;;;;0.65;0.05;;;17.00;63.00;;;;;;4974351;28;20395;-90
2021/05/25 07:35:53;;;;;;;0.00;0.00;;;17.00;63.00;;;;;;4973901;28;20400;-88
2021/05/25 07:38:20;;;;;;;0.10;0.00;;;17.00;63.00;;;;;;4973842;28;20026;-88
2021/05/25 07:40:46;;;;;;;0.03;0.00;;;17.10;63.50;;;;;;4973525;28;20031;-88
2021/05/25 07:43:13;;;;;;;1.08;0.05;;;17.20;62.60;;;;;;4972613;28;20043;-89
2021/05/25 07:45:39;;;;;;;6.45;0.10;;;17.20;62.40;;;;;;4954576;28;20051;-88
2021/05/25 07:48:05;;;;;;;1.55;0.13;;;17.30;62.20;;;;;;4971778;28;20039;-88
2021/05/25 07:50:31;;;;;;;0.15;0.00;;;17.40;62.10;;;;;;4954311;28;20050;-87
2021/05/25 07:52:57;;;;;;;0.30;0.00;;;17.50;61.90;;;;;;4963833;28;20039;-88
2021/05/25 07:55:26;;;;;;;1.60;0.00;;;17.50;61.60;;;;;;4973732;28;20042;-87
2021/05/25 07:57:52;;;;;;;0.00;0.00;;;17.40;61.70;;;;;;4973493;28;20035;-87
2021/05/25 08:00:19;;;;;;;0.77;0.05;;;17.30;62.00;;;;;;4973021;28;20031;-89
2021/05/25 08:02:45;;;;;;;0.85;0.15;;;17.30;62.00;;;;;;4973170;28;20031;-88
2021/05/25 08:05:12;;;;;;;0.05;0.05;;;17.40;62.00;;;;;;4974446;28;20035;-88
2021/05/25 08:07:39;;;;;;;0.10;0.00;;;17.50;61.60;;;;;;4973091;28;20031;-88
2021/05/25 08:10:06;;;;;;;1.23;0.00;;;17.70;61.20;;;;;;4973379;28;20488;-88
2021/05/25 08:12:32;;;;;;;4.35;0.20;;;17.90;60.80;;;;;;4989261;28;20047;-88
2021/05/25 08:15:00;;;;;;;0.00;0.00;;;18.00;60.50;;;;;;4973268;28;20046;-88
2021/05/25 08:20:13;;;;;;;2.83;0.28;;;18.30;59.90;;;;;;4976472;28;20030;-89
2021/05/25 08:22:39;;;;;;;0.00;0.00;;;18.20;59.90;;;;;;4973188;28;20472;-88
2021/05/25 08:25:06;;;;;;;0.00;0.00;;;18.00;60.20;;;;;;4974193;28;20030;-89
2021/05/25 08:27:32;;;;;;;5.05;0.20;;;18.00;60.20;;;;;;4974105;28;20388;-90
2021/05/25 08:30:01;;;;;;;0.08;0.00;;;18.10;60.00;;;;;;4972664;28;20043;-89
2021/05/25 08:32:27;;;;;;;0.03;0.00;;;18.20;59.80;;;;;;4983199;28;20023;-89
2021/05/25 08:34:53;;;;;;;0.20;0.20;;;18.30;59.60;;;;;;4959817;28;20046;-88
2021/05/25 08:37:19;;;;;;;0.00;0.00;;;18.30;59.30;;;;;;4972957;28;20058;-89
2021/05/25 08:39:45;;;;;;;0.43;0.13;;;18.40;59.10;;;;;;5010000;28;20030;-89
2021/05/25 08:42:13;;;;;;;0.10;0.00;;;18.50;59.10;;;;;;4976645;28;20424;-88
2021/05/25 08:44:39;;;;;;;0.68;0.40;;;18.60;58.70;;;;;;4976734;28;20476;-89
2021/05/25 08:47:06;;;;;;;0.00;0.00;;;18.70;58.60;;;;;;4973269;28;20050;-89
2021/05/25 08:49:36;;;;;;;0.25;0.10;;;19.00;58.30;;;;;;4972442;28;20038;-89
2021/05/25 08:52:06;;;;;;;3.47;0.22;;;19.20;57.80;;;;;;4973750;28;20042;-89
2021/05/25 08:54:33;;;;;;;0.40;0.10;;;19.50;57.50;;;;;;4973850;28;20046;-90
2021/05/25 08:56:59;;;;;;;0.50;0.00;;;19.70;57.20;;;;;;4972116;28;20035;-90
2021/05/25 08:59:25;;;;;;;0.70;0.20;;;19.90;56.90;;;;;;4972526;28;20045;-89
2021/05/25 09:01:51;;;;;;;0.00;0.00;;;20.10;56.70;;;;;;4982496;28;20037;-88
2021/05/25 09:04:17;;;;;;;0.95;0.10;;;20.10;56.50;;;;;;4973877;28;20464;-88
2021/05/25 09:06:45;;;;;;;0.25;0.05;;;20.00;56.60;;;;;;4978503;28;20049;-89
2021/05/25 09:09:15;;;;;;;1.52;0.00;;;19.90;56.70;;;;;;4976294;28;20503;-90
2021/05/25 09:12:02;;;;;;;0.20;0.03;;;19.90;56.70;;;;;;4976178;28;20031;-89
2021/05/25 09:14:29;;;;;;;0.00;0.00;;;20.10;56.50;;;;;;4959724;28;20034;-89
2021/05/25 09:17:32;;;;;;;0.20;0.20;;;20.30;56.10;;;;;;4951216;28;20032;-87
2021/05/25 09:19:59;;;;;;;7.32;0.38;;;20.50;55.60;;;;;;4953859;28;20031;-88
2021/05/25 09:22:31;;;;;;;0.10;0.00;;;20.40;55.50;;;;;;4952842;28;20488;-89
2021/05/25 09:25:00;;;;;;;0.08;0.00;;;20.30;55.50;;;;;;4953720;28;20046;-89
2021/05/25 09:27:36;;;;;;;0.00;0.00;;;20.30;55.50;;;;;;4984054;28;20469;-88
2021/05/25 09:30:32;;;;;;;0.03;0.00;;;20.40;55.40;;;;;;4968057;28;20051;-89
2021/05/25 09:33:03;;;;;;;0.10;0.00;;;20.70;55.10;;;;;;4971752;28;20523;-89
2021/05/25 09:35:33;;;;;;;0.05;0.00;;;20.90;54.70;;;;;;4973133;28;20038;-90
2021/05/25 09:38:01;;;;;;;0.00;0.00;;;21.10;54.40;;;;;;4971882;28;20420;-90
2021/05/25 09:40:29;;;;;;;0.08;0.00;;;21.30;54.00;;;;;;4955413;28;20058;-91
2021/05/25 09:43:16;;;;;;;0.13;0.03;;;21.50;53.90;;;;;;4973229;28;20022;-89
2021/05/25 09:45:58;;;;;;;0.20;0.00;;;21.80;53.50;;;;;;4965088;28;20043;-88
2021/05/25 09:48:30;;;;;;;0.10;0.00;;;21.80;53.00;;;;;;4972321;28;20043;-89
2021/05/25 09:50:56;;;;;;;0.13;0.08;;;21.80;53.10;;;;;;4971703;28;20034;-90
2021/05/25 09:53:23;;;;;;;1.45;0.20;;;21.80;53.00;;;;;;4972882;28;20503;-88
2021/05/25 09:56:01;;;;;;;0.20;0.00;;;21.70;53.10;;;;;;4971514;28;20485;-88
2021/05/25 09:58:33;;;;;;;0.00;0.00;;;21.60;53.20;;;;;;4958121;28;20038;-89
2021/05/25 10:01:00;;;;;;;0.00;0.00;;;21.50;53.10;;;;;;4979066;28;20034;-88
2021/05/25 10:03:27;;;;;;;0.00;0.00;;;21.40;53.00;;;;;;4992421;28;20035;-88
2021/05/25 10:05:54;;;;;;;0.43;0.08;;;21.10;53.20;;;;;;4994346;28;20031;-87
2021/05/25 10:08:24;;;;;;;4.85;0.13;;;20.70;53.60;;;;;;5011848;28;20488;-88
2021/05/25 10:10:54;;;;;;;0.00;0.00;;;20.60;53.70;;;;;;4995085;28;20037;-88
2021/05/25 10:13:21;;;;;;;0.00;0.00;;;20.60;53.60;;;;;;4976812;28;20045;-89
2021/05/25 10:15:48;;;;;;;2.63;0.13;;;20.90;53.10;;;;;;4976369;28;20036;-89
2021/05/25 10:21:09;;;;;;;0.00;0.00;;;21.10;52.10;;;;;;4983129;28;20047;-90
2021/05/25 10:23:36;;;;;;;0.00;0.00;;;20.90;52.30;;;;;;4987551;28;20483;-89
2021/05/25 10:26:23;;;;;;;0.00;0.00;;;20.60;52.50;;;;;;4987966;28;20034;-89
2021/05/25 10:28:50;;;;;;;0.38;0.10;;;20.40;52.80;;;;;;4939899;29;20043;-86
2021/05/25 10:31:39;;;;;;;2.90;0.35;;;20.20;52.90;;;;;;4972122;28;20027;-90
2021/05/25 10:34:11;;;;;;;0.00;0.00;;;20.10;53.00;;;;;;4989877;28;20034;-89
2021/05/25 10:36:54;;;;;;;0.20;0.17;;;20.00;53.00;;;;;;4979510;28;20031;-88
2021/05/25 10:39:34;;;;;;;0.00;0.00;;;19.90;52.80;;;;;;4980177;28;20392;-88
2021/05/25 10:42:22;;;;;;;0.30;0.00;;;19.90;52.90;;;;;;4979132;28;20377;-89
2021/05/25 10:45:08;;;;;;;0.15;0.10;;;20.10;52.70;;;;;;4978723;28;20054;-89
2021/05/25 10:47:49;;;;;;;0.00;0.00;;;20.50;52.30;;;;;;4953330;28;20046;-89
2021/05/25 10:52:55;;;;;;;0.10;0.00;;;21.00;51.60;;;;;;4955822;28;20023;-89
2021/05/25 10:55:35;;;;;;;0.00;0.00;;;21.20;51.00;;;;;;4943171;29;20043;-89
2021/05/25 10:58:02;;;;;;;0.35;0.10;;;21.10;51.30;;;;;;4984328;28;20028;-89
2021/05/25 11:00:32;;;;;;;0.00;0.00;;;20.90;51.00;;;;;;4960192;28;20023;-88
2021/05/25 11:03:05;;;;;;;0.00;0.00;;;20.80;51.10;;;;;;4977050;28;20062;-89
2021/05/25 11:05:32;;;;;;;0.55;0.32;;;20.80;51.10;;;;;;4974141;28;20039;-89
2021/05/25 11:08:07;;;;;;;0.10;0.00;;;20.80;50.90;;;;;;4973797;28;20035;-89
2021/05/25 11:10:36;;;;;;;0.03;0.00;;;20.70;50.50;;;;;;4975555;28;20039;-90
2021/05/25 11:13:17;;;;;;;8.05;0.13;;;20.50;50.60;;;;;;4975527;28;20026;-87
2021/05/25 11:18:57;;;;;;;0.00;0.00;;;20.20;50.90;;;;;;4985436;28;20406;-88
2021/05/25 11:25:04;;;;;;;0.00;0.00;;;20.00;51.00;;;;;;4982820;28;20046;-88
2021/05/25 11:27:44;;;;;;;0.00;0.00;;;20.10;50.80;;;;;;4989158;28;20054;-88
2021/05/25 11:30:14;;;;;;;0.38;0.10;;;20.30;50.60;;;;;;4988545;28;20039;-89
2021/05/25 11:32:45;;;;;;;0.00;0.00;;;20.40;50.20;;;;;;4985000;28;20027;-90
2021/05/25 11:35:12;;;;;;;0.17;0.10;;;20.50;50.00;;;;;;4962834;28;20415;-84
2021/05/25 11:37:41;;;;;;;0.55;0.00;;;20.40;50.00;;;;;;4975088;28;20034;-88
2021/05/25 11:40:14;;;;;;;0.52;0.03;;;20.30;50.10;;;;;;4973836;28;20029;-90
2021/05/25 11:42:42;;;;;;;0.00;0.00;;;20.30;50.20;;;;;;4973433;28;20043;-89
2021/05/25 11:45:09;;;;;;;0.00;0.00;;;20.20;50.20;;;;;;4988986;28;20049;-89
2021/05/25 11:47:36;;;;;;;1.50;0.20;;;20.10;50.30;;;;;;4973618;28;20027;-89
2021/05/25 11:50:03;;;;;;;9.30;0.10;;;20.10;50.40;;;;;;4957338;28;20051;-90
2021/05/25 11:52:29;;;;;;;0.38;0.10;;;20.00;50.50;;;;;;4957451;28;20388;-88
2021/05/25 11:55:00;;;;;;;0.30;0.00;;;20.00;50.40;;;;;;4989970;28;20042;-89
2021/05/25 11:57:42;;;;;;;0.00;0.00;;;19.90;50.40;;;;;;4973741;28;20046;-89
2021/05/25 12:00:13;;;;;;;0.00;0.00;;;19.90;50.40;;;;;;4972989;28;20039;-90
2021/05/25 12:02:46;;;;;;;2.63;0.00;;;19.90;50.40;;;;;;4973952;28;20472;-89
2021/05/25 12:05:18;;;;;;;0.30;0.10;;;19.80;50.40;;;;;;4973306;28;20045;-87
2021/05/25 12:07:46;;;;;;;0.25;0.00;;;19.70;50.50;;;;;;4973324;28;20031;-87
2021/05/25 12:10:14;;;;;;;0.00;0.00;;;19.70;50.60;;;;;;4973233;28;20039;-90
2021/05/25 12:12:42;;;;;;;0.75;0.22;;;19.70;50.60;;;;;;4989897;28;20030;-89
2021/05/25 12:15:14;;;;;;;0.00;0.00;;;19.60;50.60;;;;;;4953909;28;20054;-89
2021/05/25 12:17:41;;;;;;;10.98;0.10;;;19.60;50.60;;;;;;4969258;28;20391;-89
2021/05/25 12:20:08;;;;;;;0.00;0.00;;;19.70;50.60;;;;;;4972651;28;20034;-89
2021/05/25 12:22:39;;;;;;;0.00;0.00;;;19.70;50.50;;;;;;4957067;28;20403;-90
2021/05/25 12:25:24;;;;;;;0.00;0.00;;;19.80;50.30;;;;;;4973132;28;20038;-89
2021/05/25 12:28:14;;;;;;;0.35;0.10;;;20.00;50.20;;;;;;5001439;28;20027;-89
2021/05/25 12:30:52;;;;;;;0.10;0.10;;;20.20;50.10;;;;;;4962974;28;20038;-89
2021/05/25 12:33:19;;;;;;;0.57;0.00;;;20.40;49.80;;;;;;4976947;28;20042;-89
2021/05/25 12:35:45;;;;;;;1.45;0.10;;;20.50;49.70;;;;;;4960898;28;20514;-89
2021/05/25 12:38:14;;;;;;;0.25;0.00;;;20.60;49.60;;;;;;4976920;28;20038;-89
2021/05/25 12:40:42;;;;;;;0.28;0.10;;;20.70;49.60;;;;;;4974998;28;20526;-89
2021/05/25 12:43:15;;;;;;;0.57;0.10;;;20.70;49.70;;;;;;4974406;28;20031;-89
2021/05/25 12:45:43;;;;;;;0.20;0.00;;;20.60;49.70;;;;;;5008960;28;20058;-89
2021/05/25 12:48:09;;;;;;;0.10;0.05;;;20.50;49.80;;;;;;4973506;28;20417;-88
2021/05/25 12:50:37;;;;;;;0.20;0.13;;;20.40;49.90;;;;;;4973604;28;20107;-88
2021/05/25 12:53:05;;;;;;;0.00;0.00;;;20.30;50.10;;;;;;4956634;28;20115;-89
2021/05/25 12:55:33;;;;;;;4.22;0.10;;;20.20;50.30;;;;;;4956463;28;20042;-89
2021/05/25 12:57:59;;;;;;;3.85;0.10;;;20.10;50.40;;;;;;4972618;28;20030;-89
2021/05/25 13:00:28;;;;;;;0.52;0.10;;;20.00;50.40;;;;;;4971344;28;20477;-88
2021/05/25 13:02:55;;;;;;;0.68;0.10;;;20.00;50.70;;;;;;4973106;28;20543;-88
2021/05/25 13:05:37;;;;;;;0.20;0.10;;;19.80;50.70;;;;;;4972198;28;20035;-88
2021/05/25 13:08:08;;;;;;;9.07;0.30;;;19.70;50.90;;;;;;4972094;28;20023;-88
2021/05/25 13:10:38;;;;;;;7.78;0.22;;;19.60;51.10;;;;;;4972226;28;20472;-89